MSR797 HECA-LOWW
Flight info
| Callsign | MSR797 |
|---|---|
| Flight time | 3h 27m |
| Altitude | 36000 |
| Route | CVO MENKU L617 NOZ L551 ANTAR DCT RIGRO/N0447F380 DCT EVIVI L863 OKANA DCT PARAK DCT BALUX DCT TORNO DCT NATEX NATEX2W |
| Aircraft | B738/M-SDE2E3FGHIRWXY/LB1 |
Departure
| Time | 2026-05-06 15:42 |
|---|---|
| Airport | Cairo International Airport (HECA) |
Arrival
| Time | 2026-05-06 19:09 |
|---|---|
| Airport | Vienna International Airport (LOWW) |
| Time | Latitude | Longitude | Altitude | Speed | Heading |
|---|---|---|---|---|---|
| 2026-05-06 15:12 | 30.10843 | 31.39517 | 369 ft | 0 kts | 76° |
| 2026-05-06 15:33 | 30.10838 | 31.39497 | 369 ft | 4 kts | 77° |
| 2026-05-06 15:33 | 30.10833 | 31.39466 | 369 ft | 4 kts | 82° |
| 2026-05-06 15:34 | 30.10831 | 31.39435 | 369 ft | 4 kts | 98° |
| 2026-05-06 15:34 | 30.10839 | 31.39410 | 369 ft | 4 kts | 153° |
| 2026-05-06 15:34 | 30.10848 | 31.39406 | 369 ft | 1 kts | 165° |
| 2026-05-06 15:37 | 30.10839 | 31.39409 | 369 ft | 5 kts | 165° |
| 2026-05-06 15:37 | 30.10779 | 31.39427 | 369 ft | 10 kts | 165° |
| 2026-05-06 15:37 | 30.10711 | 31.39448 | 369 ft | 10 kts | 165° |
| 2026-05-06 15:37 | 30.10638 | 31.39470 | 369 ft | 12 kts | 165° |
| 2026-05-06 15:38 | 30.10600 | 31.39539 | 369 ft | 11 kts | 79° |
| 2026-05-06 15:38 | 30.10620 | 31.39627 | 369 ft | 11 kts | 75° |
| 2026-05-06 15:38 | 30.10608 | 31.39712 | 369 ft | 11 kts | 138° |
| 2026-05-06 15:38 | 30.10533 | 31.39739 | 371 ft | 11 kts | 166° |
| 2026-05-06 15:39 | 30.10460 | 31.39762 | 374 ft | 11 kts | 165° |
| 2026-05-06 15:39 | 30.10388 | 31.39784 | 378 ft | 10 kts | 168° |
| 2026-05-06 15:39 | 30.10325 | 31.39752 | 382 ft | 10 kts | 225° |
| 2026-05-06 15:39 | 30.10279 | 31.39690 | 385 ft | 10 kts | 229° |
| 2026-05-06 15:40 | 30.10230 | 31.39624 | 387 ft | 11 kts | 229° |
| 2026-05-06 15:40 | 30.10168 | 31.39566 | 388 ft | 12 kts | 190° |
| 2026-05-06 15:40 | 30.10098 | 31.39610 | 388 ft | 12 kts | 139° |
| 2026-05-06 15:40 | 30.10032 | 31.39678 | 388 ft | 15 kts | 134° |
| 2026-05-06 15:41 | 30.09996 | 31.39797 | 387 ft | 16 kts | 92° |
| 2026-05-06 15:41 | 30.10017 | 31.39895 | 387 ft | 11 kts | 51° |
| 2026-05-06 15:41 | 30.10118 | 31.40031 | 387 ft | 52 kts | 49° |
| 2026-05-06 15:41 | 30.10513 | 31.40554 | 386 ft | 119 kts | 49° |
| 2026-05-06 15:42 | 30.11168 | 31.41444 | 425 ft | 169 kts | 47° |
| 2026-05-06 15:42 | 30.11913 | 31.42487 | 1253 ft | 161 kts | 42° |
| 2026-05-06 15:42 | 30.12876 | 31.43130 | 1923 ft | 165 kts | 7° |
| 2026-05-06 15:42 | 30.14066 | 31.42998 | 2299 ft | 190 kts | 341° |
| 2026-05-06 15:43 | 30.15210 | 31.42084 | 2534 ft | 215 kts | 310° |
| 2026-05-06 15:43 | 30.15946 | 31.40500 | 2849 ft | 232 kts | 296° |
| 2026-05-06 15:43 | 30.16586 | 31.38735 | 3203 ft | 247 kts | 295° |
| 2026-05-06 15:43 | 30.17266 | 31.36848 | 3612 ft | 261 kts | 295° |
| 2026-05-06 15:44 | 30.18226 | 31.35075 | 4376 ft | 260 kts | 316° |
| 2026-05-06 15:44 | 30.19545 | 31.33648 | 5244 ft | 260 kts | 319° |
| 2026-05-06 15:44 | 30.20878 | 31.32234 | 6037 ft | 262 kts | 319° |
| 2026-05-06 15:44 | 30.22230 | 31.30781 | 6739 ft | 268 kts | 318° |
| 2026-05-06 15:45 | 30.23581 | 31.29305 | 7504 ft | 269 kts | 317° |
| 2026-05-06 15:45 | 30.24943 | 31.27798 | 8191 ft | 273 kts | 316° |
| 2026-05-06 15:45 | 30.26322 | 31.26257 | 8909 ft | 277 kts | 315° |
| 2026-05-06 15:45 | 30.27710 | 31.24693 | 9645 ft | 280 kts | 315° |
| 2026-05-06 15:46 | 30.29115 | 31.23102 | 10300 ft | 285 kts | 314° |
| 2026-05-06 15:46 | 30.30583 | 31.21431 | 10496 ft | 308 kts | 314° |
| 2026-05-06 15:46 | 30.32158 | 31.19633 | 10664 ft | 329 kts | 314° |
| 2026-05-06 15:46 | 30.33803 | 31.17750 | 10961 ft | 343 kts | 314° |
| 2026-05-06 15:47 | 30.35532 | 31.15770 | 11564 ft | 346 kts | 314° |
| 2026-05-06 15:47 | 30.37223 | 31.13831 | 12248 ft | 348 kts | 314° |
| 2026-05-06 15:47 | 30.38945 | 31.11855 | 12934 ft | 350 kts | 314° |
| 2026-05-06 15:47 | 30.40681 | 31.09861 | 13608 ft | 353 kts | 313° |
| 2026-05-06 15:48 | 30.42430 | 31.07849 | 14229 ft | 356 kts | 313° |
| 2026-05-06 15:48 | 30.44191 | 31.05821 | 14819 ft | 359 kts | 313° |
| 2026-05-06 15:48 | 30.45970 | 31.03773 | 15417 ft | 363 kts | 313° |
| 2026-05-06 15:48 | 30.47770 | 31.01698 | 16045 ft | 366 kts | 313° |
| 2026-05-06 15:49 | 30.49578 | 30.99613 | 16697 ft | 368 kts | 313° |
| 2026-05-06 15:49 | 30.51395 | 30.97517 | 17309 ft | 371 kts | 313° |
| 2026-05-06 15:49 | 30.53236 | 30.95391 | 17925 ft | 375 kts | 313° |
| 2026-05-06 15:49 | 30.55088 | 30.93253 | 18538 ft | 377 kts | 313° |
| 2026-05-06 15:50 | 30.56949 | 30.91102 | 19083 ft | 379 kts | 313° |
| 2026-05-06 15:50 | 30.58822 | 30.88935 | 19630 ft | 381 kts | 313° |
| 2026-05-06 15:50 | 30.60705 | 30.86757 | 20181 ft | 384 kts | 313° |
| 2026-05-06 15:50 | 30.62604 | 30.84559 | 20742 ft | 386 kts | 313° |
| 2026-05-06 15:51 | 30.64508 | 30.82354 | 21277 ft | 388 kts | 313° |
| 2026-05-06 15:51 | 30.66425 | 30.80131 | 21771 ft | 391 kts | 313° |
| 2026-05-06 15:51 | 30.68359 | 30.77888 | 22276 ft | 394 kts | 313° |
| 2026-05-06 15:51 | 30.70302 | 30.75634 | 22786 ft | 396 kts | 313° |
| 2026-05-06 15:52 | 30.72257 | 30.73364 | 23290 ft | 399 kts | 313° |
| 2026-05-06 15:52 | 30.74223 | 30.71079 | 23747 ft | 401 kts | 313° |
| 2026-05-06 15:52 | 30.76202 | 30.68778 | 24146 ft | 403 kts | 313° |
| 2026-05-06 15:52 | 30.78193 | 30.66462 | 24561 ft | 405 kts | 313° |
| 2026-05-06 15:53 | 30.80188 | 30.64140 | 24974 ft | 407 kts | 313° |
| 2026-05-06 15:53 | 30.82190 | 30.61808 | 25391 ft | 409 kts | 312° |
| 2026-05-06 15:53 | 30.84201 | 30.59464 | 25813 ft | 410 kts | 312° |
| 2026-05-06 15:53 | 30.86220 | 30.57110 | 26211 ft | 412 kts | 312° |
| 2026-05-06 15:54 | 30.88248 | 30.54743 | 26571 ft | 414 kts | 312° |
| 2026-05-06 15:54 | 30.90281 | 30.52368 | 26921 ft | 416 kts | 312° |
| 2026-05-06 15:54 | 30.92330 | 30.49974 | 27284 ft | 418 kts | 312° |
| 2026-05-06 15:54 | 30.94385 | 30.47571 | 27639 ft | 420 kts | 312° |
| 2026-05-06 15:55 | 30.96451 | 30.45154 | 27985 ft | 421 kts | 312° |
| 2026-05-06 15:55 | 30.98523 | 30.42727 | 28344 ft | 423 kts | 312° |
| 2026-05-06 15:55 | 31.00603 | 30.40290 | 28662 ft | 425 kts | 312° |
| 2026-05-06 15:55 | 31.02690 | 30.37844 | 28978 ft | 427 kts | 312° |
| 2026-05-06 15:56 | 31.04792 | 30.35378 | 29270 ft | 429 kts | 312° |
| 2026-05-06 15:56 | 31.06838 | 30.32903 | 29563 ft | 430 kts | 308° |
| 2026-05-06 15:56 | 31.08587 | 30.30087 | 29863 ft | 429 kts | 300° |
| 2026-05-06 15:56 | 31.10013 | 30.27036 | 30209 ft | 428 kts | 293° |
| 2026-05-06 15:57 | 31.11045 | 30.23798 | 30598 ft | 425 kts | 287° |
| 2026-05-06 15:57 | 31.11920 | 30.20521 | 31044 ft | 421 kts | 286° |
| 2026-05-06 15:57 | 31.12781 | 30.17266 | 31442 ft | 419 kts | 287° |
| 2026-05-06 15:57 | 31.13647 | 30.14028 | 31784 ft | 418 kts | 287° |
| 2026-05-06 15:58 | 31.14521 | 30.10796 | 32122 ft | 417 kts | 287° |
| 2026-05-06 15:58 | 31.15403 | 30.07561 | 32405 ft | 418 kts | 287° |
| 2026-05-06 15:58 | 31.16285 | 30.04336 | 32728 ft | 417 kts | 287° |
| 2026-05-06 15:58 | 31.17162 | 30.01124 | 33121 ft | 414 kts | 287° |
| 2026-05-06 15:59 | 31.18276 | 29.98032 | 33467 ft | 414 kts | 300° |
| 2026-05-06 15:59 | 31.20008 | 29.95342 | 33788 ft | 417 kts | 310° |
| 2026-05-06 15:59 | 31.22139 | 29.93036 | 34104 ft | 420 kts | 320° |
| 2026-05-06 15:59 | 31.24657 | 29.91271 | 34351 ft | 424 kts | 327° |
| 2026-05-06 16:00 | 31.27268 | 29.89662 | 34557 ft | 425 kts | 328° |
| 2026-05-06 16:00 | 31.29899 | 29.88066 | 34738 ft | 426 kts | 328° |
| 2026-05-06 16:00 | 31.32529 | 29.86467 | 34989 ft | 426 kts | 328° |
| 2026-05-06 16:00 | 31.35148 | 29.84862 | 35243 ft | 425 kts | 328° |
| 2026-05-06 16:01 | 31.37766 | 29.83243 | 35438 ft | 425 kts | 328° |
| 2026-05-06 16:01 | 31.40381 | 29.81614 | 35620 ft | 426 kts | 328° |
| 2026-05-06 16:01 | 31.42991 | 29.79982 | 35837 ft | 426 kts | 328° |
| 2026-05-06 16:01 | 31.45603 | 29.78345 | 36078 ft | 425 kts | 327° |
| 2026-05-06 16:02 | 31.50853 | 29.75048 | 36102 ft | 429 kts | 327° |
| 2026-05-06 16:02 | 31.56086 | 29.71760 | 36102 ft | 425 kts | 328° |
| 2026-05-06 16:03 | 31.61290 | 29.68486 | 36104 ft | 423 kts | 328° |
| 2026-05-06 16:03 | 31.66471 | 29.65221 | 36103 ft | 422 kts | 328° |
| 2026-05-06 16:04 | 31.71636 | 29.61962 | 36105 ft | 421 kts | 328° |
| 2026-05-06 16:04 | 31.76804 | 29.58698 | 36105 ft | 422 kts | 328° |
| 2026-05-06 16:05 | 31.81980 | 29.55423 | 36105 ft | 423 kts | 327° |
| 2026-05-06 16:05 | 31.87168 | 29.52137 | 36108 ft | 425 kts | 328° |
| 2026-05-06 16:06 | 31.92379 | 29.48832 | 36106 ft | 426 kts | 328° |
| 2026-05-06 16:06 | 31.97604 | 29.45515 | 36104 ft | 427 kts | 328° |
| 2026-05-06 16:07 | 32.02807 | 29.42205 | 36104 ft | 428 kts | 328° |
| 2026-05-06 16:07 | 32.08046 | 29.38856 | 36104 ft | 429 kts | 328° |
| 2026-05-06 16:08 | 32.13298 | 29.35495 | 36113 ft | 429 kts | 328° |
| 2026-05-06 16:08 | 32.18547 | 29.32132 | 36102 ft | 429 kts | 328° |
| 2026-05-06 16:09 | 32.23794 | 29.28769 | 36102 ft | 429 kts | 328° |
| 2026-05-06 16:09 | 32.29025 | 29.25418 | 36103 ft | 428 kts | 328° |
| 2026-05-06 16:10 | 32.34253 | 29.22066 | 36102 ft | 427 kts | 328° |
| 2026-05-06 16:10 | 32.39466 | 29.18718 | 36104 ft | 426 kts | 328° |
| 2026-05-06 16:11 | 32.44669 | 29.15372 | 36105 ft | 425 kts | 328° |
| 2026-05-06 16:11 | 32.49858 | 29.12028 | 36106 ft | 425 kts | 328° |
| 2026-05-06 16:12 | 32.55046 | 29.08682 | 36104 ft | 424 kts | 328° |
| 2026-05-06 16:12 | 32.60234 | 29.05331 | 36103 ft | 424 kts | 328° |
| 2026-05-06 16:13 | 32.65417 | 29.01979 | 36106 ft | 425 kts | 328° |
| 2026-05-06 16:13 | 32.70605 | 28.98619 | 36113 ft | 425 kts | 328° |
| 2026-05-06 16:14 | 32.75799 | 28.95251 | 36106 ft | 425 kts | 328° |
| 2026-05-06 16:14 | 32.80997 | 28.91876 | 36104 ft | 426 kts | 328° |
| 2026-05-06 16:15 | 32.86195 | 28.88496 | 36107 ft | 426 kts | 328° |
| 2026-05-06 16:15 | 32.91396 | 28.85110 | 36104 ft | 426 kts | 328° |
| 2026-05-06 16:16 | 32.96598 | 28.81719 | 36119 ft | 426 kts | 328° |
| 2026-05-06 16:16 | 33.01796 | 28.78325 | 36104 ft | 426 kts | 328° |
| 2026-05-06 16:17 | 33.06995 | 28.74926 | 36099 ft | 426 kts | 328° |
| 2026-05-06 16:17 | 33.12182 | 28.71531 | 36100 ft | 425 kts | 328° |
| 2026-05-06 16:18 | 33.16482 | 28.68713 | 36102 ft | 424 kts | 328° |
| 2026-05-06 16:18 | 33.22526 | 28.64746 | 36103 ft | 424 kts | 328° |
| 2026-05-06 16:19 | 33.26815 | 28.61927 | 36105 ft | 423 kts | 328° |
| 2026-05-06 16:19 | 33.32803 | 28.57986 | 36096 ft | 422 kts | 328° |
| 2026-05-06 16:20 | 33.37108 | 28.55149 | 36099 ft | 422 kts | 328° |
| 2026-05-06 16:20 | 33.42240 | 28.51763 | 36098 ft | 421 kts | 328° |
| 2026-05-06 16:21 | 33.47365 | 28.48376 | 36101 ft | 420 kts | 328° |
| 2026-05-06 16:21 | 33.52488 | 28.44987 | 36118 ft | 420 kts | 328° |
| 2026-05-06 16:22 | 33.57603 | 28.41598 | 36104 ft | 420 kts | 328° |
| 2026-05-06 16:22 | 33.62718 | 28.38204 | 36097 ft | 420 kts | 328° |
| 2026-05-06 16:23 | 33.67794 | 28.34831 | 36097 ft | 420 kts | 328° |
| 2026-05-06 16:23 | 33.72899 | 28.31434 | 36097 ft | 420 kts | 328° |
| 2026-05-06 16:24 | 33.78005 | 28.28033 | 36099 ft | 420 kts | 328° |
| 2026-05-06 16:24 | 33.83149 | 28.24701 | 36109 ft | 420 kts | 330° |
| 2026-05-06 16:25 | 33.88395 | 28.21583 | 36098 ft | 421 kts | 331° |
| 2026-05-06 16:25 | 33.93655 | 28.18481 | 36098 ft | 421 kts | 330° |
| 2026-05-06 16:26 | 33.98898 | 28.15354 | 36097 ft | 420 kts | 330° |
| 2026-05-06 16:26 | 34.04132 | 28.12209 | 36098 ft | 420 kts | 330° |
| 2026-05-06 16:27 | 34.09360 | 28.09056 | 36110 ft | 420 kts | 330° |
| 2026-05-06 16:27 | 34.14592 | 28.05896 | 36076 ft | 420 kts | 330° |
| 2026-05-06 16:28 | 34.19805 | 28.02742 | 36100 ft | 420 kts | 330° |
| 2026-05-06 16:28 | 34.25033 | 27.99576 | 36092 ft | 420 kts | 330° |
| 2026-05-06 16:29 | 34.30253 | 27.96411 | 36096 ft | 420 kts | 330° |
| 2026-05-06 16:29 | 34.35469 | 27.93242 | 36108 ft | 419 kts | 330° |
| 2026-05-06 16:30 | 34.39804 | 27.90606 | 36095 ft | 419 kts | 330° |
| 2026-05-06 16:30 | 34.45892 | 27.86899 | 36098 ft | 419 kts | 330° |
| 2026-05-06 16:31 | 34.51097 | 27.83725 | 36093 ft | 418 kts | 330° |
| 2026-05-06 16:31 | 34.56292 | 27.80552 | 36089 ft | 418 kts | 330° |
| 2026-05-06 16:32 | 34.61455 | 27.77394 | 36118 ft | 418 kts | 330° |
| 2026-05-06 16:32 | 34.66674 | 27.74198 | 36094 ft | 417 kts | 330° |
| 2026-05-06 16:33 | 34.71861 | 27.71016 | 36088 ft | 417 kts | 330° |
| 2026-05-06 16:34 | 34.79611 | 27.66255 | 36085 ft | 416 kts | 330° |
| 2026-05-06 16:34 | 34.84739 | 27.63099 | 36087 ft | 415 kts | 330° |
| 2026-05-06 16:35 | 34.89932 | 27.59898 | 36105 ft | 415 kts | 330° |
| 2026-05-06 16:35 | 34.95081 | 27.56719 | 36093 ft | 415 kts | 330° |
| 2026-05-06 16:36 | 35.00232 | 27.53535 | 36086 ft | 414 kts | 330° |
| 2026-05-06 16:36 | 35.05334 | 27.50377 | 36087 ft | 414 kts | 330° |
| 2026-05-06 16:37 | 35.10500 | 27.47175 | 36075 ft | 414 kts | 330° |
| 2026-05-06 16:37 | 35.15603 | 27.44007 | 36081 ft | 414 kts | 330° |
| 2026-05-06 16:38 | 35.20731 | 27.40820 | 36083 ft | 414 kts | 330° |
| 2026-05-06 16:38 | 35.25862 | 27.37625 | 36083 ft | 414 kts | 330° |
| 2026-05-06 16:39 | 35.31007 | 27.34418 | 36081 ft | 415 kts | 330° |
| 2026-05-06 16:39 | 35.36154 | 27.31204 | 36082 ft | 415 kts | 330° |
| 2026-05-06 16:40 | 35.41343 | 27.27960 | 36106 ft | 416 kts | 330° |
| 2026-05-06 16:40 | 35.46459 | 27.24757 | 36085 ft | 416 kts | 330° |
| 2026-05-06 16:41 | 35.51598 | 27.21535 | 36094 ft | 414 kts | 330° |
| 2026-05-06 16:41 | 35.56719 | 27.18320 | 36068 ft | 412 kts | 330° |
| 2026-05-06 16:42 | 35.61801 | 27.15106 | 36073 ft | 410 kts | 330° |
| 2026-05-06 16:42 | 35.66880 | 27.11914 | 36082 ft | 409 kts | 330° |
| 2026-05-06 16:43 | 35.71949 | 27.08726 | 36091 ft | 409 kts | 330° |
| 2026-05-06 16:43 | 35.77008 | 27.05534 | 36087 ft | 410 kts | 330° |
| 2026-05-06 16:44 | 35.82080 | 27.02326 | 36089 ft | 410 kts | 330° |
| 2026-05-06 16:44 | 35.87155 | 26.99111 | 36091 ft | 410 kts | 330° |
| 2026-05-06 16:45 | 35.92232 | 26.95890 | 36089 ft | 411 kts | 330° |
| 2026-05-06 16:45 | 35.97299 | 26.92672 | 36096 ft | 411 kts | 330° |
| 2026-05-06 16:46 | 36.02395 | 26.89430 | 36089 ft | 411 kts | 330° |
| 2026-05-06 16:46 | 36.07489 | 26.86185 | 36081 ft | 412 kts | 330° |
| 2026-05-06 16:47 | 36.12574 | 26.82940 | 36088 ft | 411 kts | 330° |
| 2026-05-06 16:47 | 36.17643 | 26.79702 | 36090 ft | 411 kts | 330° |
| 2026-05-06 16:48 | 36.22730 | 26.76446 | 36101 ft | 411 kts | 330° |
| 2026-05-06 16:48 | 36.27815 | 26.73187 | 36092 ft | 411 kts | 330° |
| 2026-05-06 16:49 | 36.32893 | 26.69928 | 36090 ft | 411 kts | 330° |
| 2026-05-06 16:49 | 36.37966 | 26.66668 | 36086 ft | 410 kts | 330° |
| 2026-05-06 16:50 | 36.43029 | 26.63409 | 36093 ft | 410 kts | 330° |
| 2026-05-06 16:50 | 36.48093 | 26.60145 | 36102 ft | 409 kts | 330° |
| 2026-05-06 16:51 | 36.53138 | 26.56888 | 36091 ft | 409 kts | 330° |
| 2026-05-06 16:51 | 36.58224 | 26.53600 | 36086 ft | 408 kts | 330° |
| 2026-05-06 16:52 | 36.63252 | 26.50344 | 36086 ft | 408 kts | 330° |
| 2026-05-06 16:52 | 36.68274 | 26.47087 | 36087 ft | 408 kts | 330° |
| 2026-05-06 16:53 | 36.73311 | 26.43816 | 36101 ft | 408 kts | 330° |
| 2026-05-06 16:53 | 36.78338 | 26.40546 | 36085 ft | 408 kts | 330° |
| 2026-05-06 16:54 | 36.83364 | 26.37273 | 36086 ft | 408 kts | 330° |
| 2026-05-06 16:54 | 36.88400 | 26.33987 | 36095 ft | 408 kts | 330° |
| 2026-05-06 16:55 | 36.93422 | 26.30706 | 36081 ft | 408 kts | 330° |
| 2026-05-06 16:55 | 36.98450 | 26.27416 | 36076 ft | 407 kts | 330° |
| 2026-05-06 16:56 | 37.03470 | 26.24127 | 36079 ft | 407 kts | 330° |
| 2026-05-06 16:56 | 37.08492 | 26.20831 | 36081 ft | 408 kts | 330° |
| 2026-05-06 16:57 | 37.13516 | 26.17529 | 36080 ft | 408 kts | 330° |
| 2026-05-06 16:57 | 37.18531 | 26.14228 | 36088 ft | 408 kts | 330° |
| 2026-05-06 16:58 | 37.23564 | 26.10909 | 36093 ft | 408 kts | 330° |
| 2026-05-06 16:58 | 37.28596 | 26.07587 | 36086 ft | 409 kts | 330° |
| 2026-05-06 16:59 | 37.33625 | 26.04261 | 36084 ft | 408 kts | 330° |
| 2026-05-06 16:59 | 37.38651 | 26.00933 | 36080 ft | 408 kts | 330° |
| 2026-05-06 17:00 | 37.43678 | 25.97598 | 36080 ft | 408 kts | 330° |
| 2026-05-06 17:00 | 37.48693 | 25.94266 | 36073 ft | 408 kts | 330° |
| 2026-05-06 17:01 | 37.53675 | 25.90950 | 36086 ft | 408 kts | 330° |
| 2026-05-06 17:01 | 37.57877 | 25.88151 | 36077 ft | 408 kts | 330° |
| 2026-05-06 17:02 | 37.62951 | 25.84922 | 36074 ft | 409 kts | 332° |
| 2026-05-06 17:02 | 37.68108 | 25.81883 | 36077 ft | 409 kts | 333° |
| 2026-05-06 17:03 | 37.73269 | 25.78843 | 36076 ft | 410 kts | 332° |
| 2026-05-06 17:03 | 37.78428 | 25.75770 | 36075 ft | 410 kts | 332° |
| 2026-05-06 17:04 | 37.83547 | 25.72700 | 36074 ft | 410 kts | 332° |
| 2026-05-06 17:04 | 37.88734 | 25.69579 | 36074 ft | 410 kts | 332° |
| 2026-05-06 17:05 | 37.93853 | 25.66493 | 36075 ft | 410 kts | 332° |
| 2026-05-06 17:05 | 37.99042 | 25.63360 | 36060 ft | 410 kts | 332° |
| 2026-05-06 17:06 | 38.04165 | 25.60263 | 36072 ft | 411 kts | 332° |
| 2026-05-06 17:06 | 38.09321 | 25.57141 | 36071 ft | 411 kts | 332° |
| 2026-05-06 17:07 | 38.14465 | 25.54021 | 36074 ft | 411 kts | 332° |
| 2026-05-06 17:07 | 38.19639 | 25.50878 | 36072 ft | 411 kts | 332° |
| 2026-05-06 17:08 | 38.24796 | 25.47741 | 36071 ft | 411 kts | 332° |
| 2026-05-06 17:08 | 38.29960 | 25.44594 | 36075 ft | 411 kts | 332° |
| 2026-05-06 17:09 | 38.35115 | 25.41447 | 36069 ft | 411 kts | 332° |
| 2026-05-06 17:09 | 38.40298 | 25.38279 | 36068 ft | 411 kts | 332° |
| 2026-05-06 17:10 | 38.45414 | 25.35147 | 36071 ft | 411 kts | 332° |
| 2026-05-06 17:10 | 38.50565 | 25.31988 | 36064 ft | 411 kts | 332° |
| 2026-05-06 17:11 | 38.55713 | 25.28826 | 36066 ft | 411 kts | 332° |
| 2026-05-06 17:11 | 38.60864 | 25.25656 | 36064 ft | 411 kts | 332° |
| 2026-05-06 17:12 | 38.66015 | 25.22482 | 36066 ft | 411 kts | 332° |
| 2026-05-06 17:12 | 38.71163 | 25.19305 | 36062 ft | 411 kts | 332° |
| 2026-05-06 17:13 | 38.76318 | 25.16118 | 36069 ft | 411 kts | 332° |
| 2026-05-06 17:13 | 38.81472 | 25.12927 | 36062 ft | 411 kts | 332° |
| 2026-05-06 17:14 | 38.86620 | 25.09734 | 36062 ft | 411 kts | 332° |
| 2026-05-06 17:14 | 38.91775 | 25.06532 | 36062 ft | 411 kts | 332° |
| 2026-05-06 17:15 | 38.96927 | 25.03327 | 36062 ft | 411 kts | 332° |
| 2026-05-06 17:15 | 39.02078 | 25.00116 | 36054 ft | 412 kts | 332° |
| 2026-05-06 17:16 | 39.07231 | 24.96899 | 36061 ft | 412 kts | 332° |
| 2026-05-06 17:16 | 39.12385 | 24.93677 | 36060 ft | 412 kts | 332° |
| 2026-05-06 17:17 | 39.17516 | 24.90463 | 36056 ft | 413 kts | 332° |
| 2026-05-06 17:17 | 39.22710 | 24.87205 | 36058 ft | 413 kts | 332° |
| 2026-05-06 17:18 | 39.27846 | 24.83978 | 36061 ft | 413 kts | 332° |
| 2026-05-06 17:18 | 39.33015 | 24.80725 | 36058 ft | 414 kts | 332° |
| 2026-05-06 17:19 | 39.38191 | 24.77462 | 36059 ft | 414 kts | 332° |
| 2026-05-06 17:19 | 39.43366 | 24.74194 | 36059 ft | 414 kts | 332° |
| 2026-05-06 17:20 | 39.48541 | 24.70921 | 36069 ft | 414 kts | 332° |
| 2026-05-06 17:20 | 39.53720 | 24.67640 | 36059 ft | 414 kts | 332° |
| 2026-05-06 17:21 | 39.58895 | 24.64356 | 36051 ft | 414 kts | 332° |
| 2026-05-06 17:21 | 39.64060 | 24.61072 | 36052 ft | 413 kts | 332° |
| 2026-05-06 17:22 | 39.69223 | 24.57785 | 36061 ft | 413 kts | 332° |
| 2026-05-06 17:22 | 39.74376 | 24.54498 | 36058 ft | 413 kts | 332° |
| 2026-05-06 17:23 | 39.79526 | 24.51208 | 36048 ft | 412 kts | 332° |
| 2026-05-06 17:23 | 39.84670 | 24.47916 | 36051 ft | 412 kts | 332° |
| 2026-05-06 17:24 | 39.89807 | 24.44623 | 36054 ft | 411 kts | 332° |
| 2026-05-06 17:24 | 39.94903 | 24.41351 | 36050 ft | 411 kts | 332° |
| 2026-05-06 17:25 | 40.00032 | 24.38052 | 36040 ft | 411 kts | 332° |
| 2026-05-06 17:25 | 40.05158 | 24.34749 | 36045 ft | 411 kts | 332° |
| 2026-05-06 17:26 | 40.10285 | 24.31440 | 36048 ft | 411 kts | 332° |
| 2026-05-06 17:26 | 40.15412 | 24.28126 | 36052 ft | 412 kts | 332° |
| 2026-05-06 17:27 | 40.20555 | 24.24795 | 36047 ft | 412 kts | 332° |
| 2026-05-06 17:27 | 40.25697 | 24.21460 | 36035 ft | 413 kts | 332° |
| 2026-05-06 17:28 | 40.30852 | 24.18111 | 36033 ft | 413 kts | 332° |
| 2026-05-06 17:28 | 40.36002 | 24.14759 | 36043 ft | 413 kts | 332° |
| 2026-05-06 17:29 | 40.41155 | 24.11399 | 36035 ft | 413 kts | 332° |
| 2026-05-06 17:29 | 40.46308 | 24.08034 | 36039 ft | 413 kts | 332° |
| 2026-05-06 17:30 | 40.51451 | 24.04669 | 36031 ft | 413 kts | 332° |
| 2026-05-06 17:30 | 40.56599 | 24.01295 | 36036 ft | 413 kts | 332° |
| 2026-05-06 17:31 | 40.61737 | 23.97922 | 36037 ft | 413 kts | 332° |
| 2026-05-06 17:31 | 40.66881 | 23.94539 | 36039 ft | 413 kts | 331° |
| 2026-05-06 17:32 | 40.72029 | 23.91147 | 36032 ft | 413 kts | 331° |
| 2026-05-06 17:32 | 40.77170 | 23.87755 | 36030 ft | 414 kts | 331° |
| 2026-05-06 17:33 | 40.82285 | 23.84373 | 36022 ft | 414 kts | 331° |
| 2026-05-06 17:33 | 40.87430 | 23.80966 | 36026 ft | 414 kts | 331° |
| 2026-05-06 17:34 | 40.92605 | 23.77533 | 36029 ft | 414 kts | 331° |
| 2026-05-06 17:34 | 40.97716 | 23.74136 | 36011 ft | 414 kts | 331° |
| 2026-05-06 17:35 | 41.02862 | 23.70710 | 36029 ft | 414 kts | 331° |
| 2026-05-06 17:35 | 41.08016 | 23.67273 | 36021 ft | 415 kts | 331° |
| 2026-05-06 17:36 | 41.15757 | 23.62097 | 36013 ft | 416 kts | 330° |
| 2026-05-06 17:36 | 41.20925 | 23.58627 | 36017 ft | 416 kts | 331° |
| 2026-05-06 17:37 | 41.26088 | 23.55171 | 36026 ft | 416 kts | 331° |
| 2026-05-06 17:37 | 41.31261 | 23.51694 | 36028 ft | 417 kts | 330° |
| 2026-05-06 17:38 | 41.36438 | 23.48208 | 36046 ft | 417 kts | 331° |
| 2026-05-06 17:38 | 41.41624 | 23.44718 | 36031 ft | 418 kts | 331° |
| 2026-05-06 17:39 | 41.46851 | 23.41305 | 36023 ft | 418 kts | 332° |
| 2026-05-06 17:39 | 41.52055 | 23.37933 | 36038 ft | 418 kts | 332° |
| 2026-05-06 17:40 | 41.57315 | 23.34507 | 36038 ft | 418 kts | 332° |
| 2026-05-06 17:40 | 41.62510 | 23.31109 | 36042 ft | 418 kts | 332° |
| 2026-05-06 17:41 | 41.67732 | 23.27684 | 36043 ft | 418 kts | 331° |
| 2026-05-06 17:41 | 41.72956 | 23.24252 | 36046 ft | 418 kts | 331° |
| 2026-05-06 17:42 | 41.78181 | 23.20813 | 36044 ft | 418 kts | 331° |
| 2026-05-06 17:42 | 41.83411 | 23.17364 | 36051 ft | 418 kts | 331° |
| 2026-05-06 17:43 | 41.88631 | 23.13915 | 36047 ft | 419 kts | 331° |
| 2026-05-06 17:43 | 41.93853 | 23.10460 | 36034 ft | 419 kts | 331° |
| 2026-05-06 17:44 | 41.99081 | 23.06993 | 36028 ft | 419 kts | 331° |
| 2026-05-06 17:44 | 42.04297 | 23.03528 | 36032 ft | 418 kts | 331° |
| 2026-05-06 17:45 | 42.09525 | 23.00049 | 36027 ft | 418 kts | 331° |
| 2026-05-06 17:45 | 42.14732 | 22.96577 | 36023 ft | 418 kts | 331° |
| 2026-05-06 17:46 | 42.19945 | 22.93094 | 36020 ft | 418 kts | 331° |
| 2026-05-06 17:46 | 42.25156 | 22.89607 | 36021 ft | 419 kts | 331° |
| 2026-05-06 17:47 | 42.30380 | 22.86104 | 36022 ft | 419 kts | 331° |
| 2026-05-06 17:47 | 42.35610 | 22.82587 | 36021 ft | 420 kts | 331° |
| 2026-05-06 17:48 | 42.40839 | 22.79063 | 36015 ft | 420 kts | 330° |
| 2026-05-06 17:48 | 42.45192 | 22.76125 | 36000 ft | 421 kts | 330° |
| 2026-05-06 17:49 | 42.50426 | 22.72585 | 36009 ft | 421 kts | 330° |
| 2026-05-06 17:49 | 42.56515 | 22.68460 | 36010 ft | 421 kts | 330° |
| 2026-05-06 17:50 | 42.60903 | 22.65482 | 36014 ft | 421 kts | 330° |
| 2026-05-06 17:50 | 42.66141 | 22.61918 | 36015 ft | 421 kts | 330° |
| 2026-05-06 17:51 | 42.71385 | 22.58342 | 36023 ft | 421 kts | 330° |
| 2026-05-06 17:51 | 42.76634 | 22.54757 | 36012 ft | 422 kts | 330° |
| 2026-05-06 17:52 | 42.81884 | 22.51164 | 35997 ft | 423 kts | 330° |
| 2026-05-06 17:52 | 42.87141 | 22.47569 | 36006 ft | 423 kts | 330° |
| 2026-05-06 17:53 | 42.92409 | 22.43990 | 35997 ft | 423 kts | 331° |
| 2026-05-06 17:53 | 42.97678 | 22.40408 | 36000 ft | 424 kts | 331° |
| 2026-05-06 17:54 | 43.02954 | 22.36813 | 35974 ft | 424 kts | 330° |
| 2026-05-06 17:54 | 43.08232 | 22.33205 | 35972 ft | 424 kts | 330° |
| 2026-05-06 17:55 | 43.13513 | 22.29589 | 35967 ft | 424 kts | 330° |
| 2026-05-06 17:55 | 43.18790 | 22.25967 | 35974 ft | 425 kts | 330° |
| 2026-05-06 17:56 | 43.24038 | 22.22359 | 35963 ft | 425 kts | 330° |
| 2026-05-06 17:56 | 43.29330 | 22.18713 | 35949 ft | 426 kts | 330° |
| 2026-05-06 17:57 | 43.34618 | 22.15063 | 35947 ft | 425 kts | 330° |
| 2026-05-06 17:57 | 43.39914 | 22.11401 | 35955 ft | 426 kts | 330° |
| 2026-05-06 17:58 | 43.45204 | 22.07734 | 35948 ft | 426 kts | 330° |
| 2026-05-06 17:58 | 43.50495 | 22.04061 | 35950 ft | 426 kts | 330° |
| 2026-05-06 17:59 | 43.55785 | 22.00381 | 35954 ft | 426 kts | 330° |
| 2026-05-06 17:59 | 43.61078 | 21.96691 | 35953 ft | 426 kts | 330° |
| 2026-05-06 18:00 | 43.66371 | 21.92994 | 35952 ft | 426 kts | 330° |
| 2026-05-06 18:00 | 43.71658 | 21.89294 | 35953 ft | 426 kts | 330° |
| 2026-05-06 18:01 | 43.76943 | 21.85587 | 35954 ft | 426 kts | 330° |
| 2026-05-06 18:01 | 43.82227 | 21.81875 | 35949 ft | 426 kts | 330° |
| 2026-05-06 18:02 | 43.87511 | 21.78155 | 35952 ft | 426 kts | 330° |
| 2026-05-06 18:02 | 43.92787 | 21.74433 | 35953 ft | 425 kts | 330° |
| 2026-05-06 18:03 | 43.98052 | 21.70712 | 35961 ft | 425 kts | 330° |
| 2026-05-06 18:03 | 44.03321 | 21.66978 | 35957 ft | 425 kts | 330° |
| 2026-05-06 18:04 | 44.08600 | 21.63231 | 35961 ft | 426 kts | 330° |
| 2026-05-06 18:04 | 44.13883 | 21.59474 | 35945 ft | 427 kts | 330° |
| 2026-05-06 18:05 | 44.19145 | 21.55725 | 35932 ft | 428 kts | 330° |
| 2026-05-06 18:05 | 44.24440 | 21.51944 | 35942 ft | 428 kts | 330° |
| 2026-05-06 18:06 | 44.29743 | 21.48150 | 35941 ft | 428 kts | 330° |
| 2026-05-06 18:06 | 44.35050 | 21.44345 | 35946 ft | 429 kts | 330° |
| 2026-05-06 18:07 | 44.40351 | 21.40536 | 35919 ft | 429 kts | 329° |
| 2026-05-06 18:07 | 44.45658 | 21.36716 | 35934 ft | 429 kts | 329° |
| 2026-05-06 18:08 | 44.50960 | 21.32892 | 35927 ft | 429 kts | 329° |
| 2026-05-06 18:08 | 44.56265 | 21.29057 | 35935 ft | 429 kts | 329° |
| 2026-05-06 18:09 | 44.61569 | 21.25214 | 35928 ft | 429 kts | 329° |
| 2026-05-06 18:09 | 44.66861 | 21.21373 | 35924 ft | 428 kts | 329° |
| 2026-05-06 18:10 | 44.72152 | 21.17524 | 35925 ft | 428 kts | 329° |
| 2026-05-06 18:10 | 44.77448 | 21.13664 | 35925 ft | 429 kts | 329° |
| 2026-05-06 18:11 | 44.82713 | 21.09819 | 35919 ft | 429 kts | 329° |
| 2026-05-06 18:11 | 44.88013 | 21.05939 | 35920 ft | 429 kts | 329° |
| 2026-05-06 18:12 | 44.93317 | 21.02049 | 35933 ft | 430 kts | 328° |
| 2026-05-06 18:12 | 44.98629 | 20.98144 | 35921 ft | 431 kts | 328° |
| 2026-05-06 18:13 | 45.03956 | 20.94221 | 35924 ft | 432 kts | 329° |
| 2026-05-06 18:13 | 45.09287 | 20.90285 | 35919 ft | 433 kts | 329° |
| 2026-05-06 18:14 | 45.14628 | 20.86335 | 35917 ft | 433 kts | 328° |
| 2026-05-06 18:14 | 45.19966 | 20.82378 | 35927 ft | 433 kts | 328° |
| 2026-05-06 18:15 | 45.25312 | 20.78407 | 35917 ft | 434 kts | 328° |
| 2026-05-06 18:15 | 45.30665 | 20.74422 | 35916 ft | 435 kts | 328° |
| 2026-05-06 18:16 | 45.36022 | 20.70425 | 35915 ft | 435 kts | 328° |
| 2026-05-06 18:16 | 45.41386 | 20.66415 | 35918 ft | 435 kts | 328° |
| 2026-05-06 18:17 | 45.46737 | 20.62406 | 35917 ft | 435 kts | 328° |
| 2026-05-06 18:17 | 45.52107 | 20.58374 | 35929 ft | 436 kts | 328° |
| 2026-05-06 18:18 | 45.57470 | 20.54338 | 35914 ft | 436 kts | 328° |
| 2026-05-06 18:18 | 45.62845 | 20.50284 | 35915 ft | 436 kts | 328° |
| 2026-05-06 18:19 | 45.68209 | 20.46230 | 35913 ft | 437 kts | 328° |
| 2026-05-06 18:19 | 45.73580 | 20.42162 | 35910 ft | 437 kts | 328° |
| 2026-05-06 18:20 | 45.78913 | 20.38112 | 35918 ft | 437 kts | 328° |
| 2026-05-06 18:20 | 45.84287 | 20.34024 | 35906 ft | 438 kts | 328° |
| 2026-05-06 18:21 | 45.89670 | 20.29920 | 35903 ft | 438 kts | 328° |
| 2026-05-06 18:21 | 45.95051 | 20.25808 | 35911 ft | 438 kts | 328° |
| 2026-05-06 18:22 | 46.00433 | 20.21686 | 35913 ft | 438 kts | 328° |
| 2026-05-06 18:22 | 46.05808 | 20.17560 | 35910 ft | 439 kts | 328° |
| 2026-05-06 18:23 | 46.11174 | 20.13431 | 35914 ft | 439 kts | 328° |
| 2026-05-06 18:23 | 46.16577 | 20.09266 | 35913 ft | 439 kts | 327° |
| 2026-05-06 18:24 | 46.21929 | 20.05024 | 35906 ft | 439 kts | 327° |
| 2026-05-06 18:24 | 46.27237 | 20.00743 | 35913 ft | 439 kts | 326° |
| 2026-05-06 18:25 | 46.32578 | 19.96432 | 35908 ft | 438 kts | 327° |
| 2026-05-06 18:25 | 46.37904 | 19.92135 | 35911 ft | 438 kts | 327° |
| 2026-05-06 18:26 | 46.43225 | 19.87837 | 35913 ft | 437 kts | 327° |
| 2026-05-06 18:26 | 46.48570 | 19.83511 | 35923 ft | 437 kts | 326° |
| 2026-05-06 18:27 | 46.53839 | 19.79237 | 35914 ft | 436 kts | 326° |
| 2026-05-06 18:27 | 46.59123 | 19.74939 | 35917 ft | 436 kts | 326° |
| 2026-05-06 18:28 | 46.64403 | 19.70636 | 35914 ft | 436 kts | 326° |
| 2026-05-06 18:28 | 46.69715 | 19.66297 | 35916 ft | 436 kts | 326° |
| 2026-05-06 18:29 | 46.75010 | 19.61962 | 35929 ft | 436 kts | 326° |
| 2026-05-06 18:29 | 46.80300 | 19.57621 | 35909 ft | 437 kts | 326° |
| 2026-05-06 18:30 | 46.85521 | 19.53327 | 35914 ft | 437 kts | 326° |
| 2026-05-06 18:30 | 46.90818 | 19.48961 | 35919 ft | 437 kts | 326° |
| 2026-05-06 18:31 | 46.96122 | 19.44578 | 35912 ft | 438 kts | 326° |
| 2026-05-06 18:31 | 47.01435 | 19.40179 | 35911 ft | 438 kts | 326° |
| 2026-05-06 18:32 | 47.06736 | 19.35778 | 35901 ft | 439 kts | 326° |
| 2026-05-06 18:32 | 47.12055 | 19.31353 | 35899 ft | 439 kts | 326° |
| 2026-05-06 18:33 | 47.17374 | 19.26917 | 35899 ft | 440 kts | 326° |
| 2026-05-06 18:33 | 47.22702 | 19.22464 | 35888 ft | 441 kts | 326° |
| 2026-05-06 18:34 | 47.25417 | 19.20188 | 35362 ft | 447 kts | 326° |
| 2026-05-06 18:34 | 47.27209 | 19.18687 | 34994 ft | 446 kts | 326° |
| 2026-05-06 18:34 | 47.29905 | 19.16426 | 34378 ft | 445 kts | 325° |
| 2026-05-06 18:34 | 47.32389 | 19.13855 | 33808 ft | 436 kts | 313° |
| 2026-05-06 18:35 | 47.34452 | 19.10612 | 33355 ft | 425 kts | 303° |
| 2026-05-06 18:35 | 47.36047 | 19.07029 | 32899 ft | 414 kts | 292° |
| 2026-05-06 18:35 | 47.37257 | 19.03214 | 32453 ft | 407 kts | 291° |
| 2026-05-06 18:35 | 47.38415 | 18.99421 | 32014 ft | 404 kts | 290° |
| 2026-05-06 18:36 | 47.39566 | 18.95649 | 31564 ft | 400 kts | 290° |
| 2026-05-06 18:36 | 47.40687 | 18.91993 | 31137 ft | 397 kts | 291° |
| 2026-05-06 18:36 | 47.41830 | 18.88296 | 30702 ft | 394 kts | 291° |
| 2026-05-06 18:36 | 47.42970 | 18.84627 | 30282 ft | 391 kts | 291° |
| 2026-05-06 18:37 | 47.44099 | 18.80996 | 29849 ft | 388 kts | 291° |
| 2026-05-06 18:37 | 47.45222 | 18.77387 | 29354 ft | 385 kts | 291° |
| 2026-05-06 18:37 | 47.46332 | 18.73817 | 28919 ft | 380 kts | 291° |
| 2026-05-06 18:37 | 47.47429 | 18.70284 | 28470 ft | 377 kts | 291° |
| 2026-05-06 18:38 | 47.48514 | 18.66785 | 28044 ft | 373 kts | 291° |
| 2026-05-06 18:38 | 47.49593 | 18.63297 | 27606 ft | 371 kts | 291° |
| 2026-05-06 18:38 | 47.50660 | 18.59844 | 27174 ft | 368 kts | 291° |
| 2026-05-06 18:38 | 47.51719 | 18.56415 | 26747 ft | 365 kts | 291° |
| 2026-05-06 18:39 | 47.52768 | 18.53013 | 26336 ft | 363 kts | 291° |
| 2026-05-06 18:39 | 47.53823 | 18.49577 | 25913 ft | 360 kts | 290° |
| 2026-05-06 18:39 | 47.54704 | 18.46185 | 25403 ft | 359 kts | 285° |
| 2026-05-06 18:40 | 47.56193 | 18.39160 | 24554 ft | 356 kts | 283° |
| 2026-05-06 18:40 | 47.56907 | 18.35664 | 24144 ft | 354 kts | 283° |
| 2026-05-06 18:40 | 47.57623 | 18.32189 | 23732 ft | 353 kts | 283° |
| 2026-05-06 18:40 | 47.58346 | 18.28710 | 23269 ft | 353 kts | 284° |
| 2026-05-06 18:41 | 47.59070 | 18.25250 | 22845 ft | 351 kts | 284° |
| 2026-05-06 18:41 | 47.59795 | 18.21797 | 22409 ft | 349 kts | 284° |
| 2026-05-06 18:41 | 47.60515 | 18.18381 | 21989 ft | 346 kts | 284° |
| 2026-05-06 18:41 | 47.61228 | 18.14994 | 21589 ft | 344 kts | 284° |
| 2026-05-06 18:42 | 47.61935 | 18.11633 | 21199 ft | 341 kts | 284° |
| 2026-05-06 18:42 | 47.62639 | 18.08281 | 20800 ft | 339 kts | 283° |
| 2026-05-06 18:42 | 47.63339 | 18.04946 | 20408 ft | 337 kts | 283° |
| 2026-05-06 18:42 | 47.64033 | 18.01633 | 20018 ft | 336 kts | 283° |
| 2026-05-06 18:43 | 47.64723 | 17.98332 | 19636 ft | 334 kts | 283° |
| 2026-05-06 18:43 | 47.65415 | 17.95014 | 19243 ft | 333 kts | 283° |
| 2026-05-06 18:43 | 47.66090 | 17.91780 | 18875 ft | 332 kts | 283° |
| 2026-05-06 18:43 | 47.66775 | 17.88483 | 18493 ft | 330 kts | 283° |
| 2026-05-06 18:44 | 47.67452 | 17.85223 | 18094 ft | 330 kts | 283° |
| 2026-05-06 18:44 | 47.68128 | 17.81966 | 17665 ft | 329 kts | 283° |
| 2026-05-06 18:44 | 47.68798 | 17.78734 | 17273 ft | 327 kts | 283° |
| 2026-05-06 18:44 | 47.69452 | 17.75572 | 16882 ft | 325 kts | 283° |
| 2026-05-06 18:45 | 47.70123 | 17.72325 | 16498 ft | 323 kts | 283° |
| 2026-05-06 18:45 | 47.70973 | 17.69223 | 16235 ft | 325 kts | 291° |
| 2026-05-06 18:45 | 47.72006 | 17.66203 | 15992 ft | 331 kts | 293° |
| 2026-05-06 18:45 | 47.73087 | 17.63152 | 15739 ft | 336 kts | 293° |
| 2026-05-06 18:46 | 47.74177 | 17.60074 | 15497 ft | 337 kts | 293° |
| 2026-05-06 18:46 | 47.75257 | 17.57002 | 15252 ft | 334 kts | 292° |
| 2026-05-06 18:46 | 47.76313 | 17.53971 | 14995 ft | 332 kts | 292° |
| 2026-05-06 18:46 | 47.77366 | 17.50918 | 14760 ft | 330 kts | 292° |
| 2026-05-06 18:47 | 47.78411 | 17.47873 | 14520 ft | 329 kts | 292° |
| 2026-05-06 18:47 | 47.79442 | 17.44854 | 14270 ft | 327 kts | 292° |
| 2026-05-06 18:47 | 47.80466 | 17.41848 | 14026 ft | 325 kts | 291° |
| 2026-05-06 18:47 | 47.81472 | 17.38887 | 13779 ft | 324 kts | 291° |
| 2026-05-06 18:48 | 47.82498 | 17.35862 | 13543 ft | 323 kts | 291° |
| 2026-05-06 18:48 | 47.83495 | 17.32919 | 13282 ft | 322 kts | 291° |
| 2026-05-06 18:48 | 47.84510 | 17.29917 | 13007 ft | 321 kts | 291° |
| 2026-05-06 18:48 | 47.85501 | 17.26987 | 12752 ft | 320 kts | 291° |
| 2026-05-06 18:49 | 47.86494 | 17.24044 | 12492 ft | 319 kts | 291° |
| 2026-05-06 18:49 | 47.87490 | 17.21088 | 12227 ft | 318 kts | 291° |
| 2026-05-06 18:49 | 47.88492 | 17.18113 | 11971 ft | 317 kts | 291° |
| 2026-05-06 18:49 | 47.89469 | 17.15208 | 11727 ft | 316 kts | 291° |
| 2026-05-06 18:50 | 47.90440 | 17.12318 | 11482 ft | 315 kts | 292° |
| 2026-05-06 18:50 | 47.91436 | 17.09376 | 11229 ft | 314 kts | 294° |
| 2026-05-06 18:50 | 47.92819 | 17.06822 | 10973 ft | 321 kts | 312° |
| 2026-05-06 18:50 | 47.94455 | 17.04619 | 10740 ft | 320 kts | 313° |
| 2026-05-06 18:51 | 47.96106 | 17.02414 | 10487 ft | 319 kts | 313° |
| 2026-05-06 18:51 | 47.97773 | 17.00176 | 10251 ft | 318 kts | 313° |
| 2026-05-06 18:51 | 47.99390 | 16.97989 | 10071 ft | 315 kts | 313° |
| 2026-05-06 18:51 | 48.01027 | 16.95761 | 10023 ft | 313 kts | 312° |
| 2026-05-06 18:52 | 48.02606 | 16.93603 | 10014 ft | 305 kts | 312° |
| 2026-05-06 18:52 | 48.04150 | 16.91489 | 9987 ft | 292 kts | 312° |
| 2026-05-06 18:52 | 48.05618 | 16.89476 | 9873 ft | 286 kts | 312° |
| 2026-05-06 18:52 | 48.07085 | 16.87451 | 9629 ft | 286 kts | 312° |
| 2026-05-06 18:53 | 48.08545 | 16.85434 | 9366 ft | 284 kts | 312° |
| 2026-05-06 18:53 | 48.09990 | 16.83439 | 9109 ft | 281 kts | 311° |
| 2026-05-06 18:53 | 48.11420 | 16.81462 | 8846 ft | 279 kts | 311° |
| 2026-05-06 18:53 | 48.12840 | 16.79496 | 8592 ft | 278 kts | 311° |
| 2026-05-06 18:54 | 48.14257 | 16.77534 | 8338 ft | 276 kts | 311° |
| 2026-05-06 18:54 | 48.15664 | 16.75583 | 8088 ft | 275 kts | 311° |
| 2026-05-06 18:54 | 48.17065 | 16.73642 | 7841 ft | 274 kts | 311° |
| 2026-05-06 18:54 | 48.18463 | 16.71702 | 7591 ft | 274 kts | 311° |
| 2026-05-06 18:55 | 48.19856 | 16.69769 | 7406 ft | 271 kts | 311° |
| 2026-05-06 18:55 | 48.21207 | 16.67895 | 7420 ft | 266 kts | 310° |
| 2026-05-06 18:55 | 48.22729 | 16.66193 | 7392 ft | 280 kts | 332° |
| 2026-05-06 18:55 | 48.24619 | 16.65333 | 7420 ft | 284 kts | 340° |
| 2026-05-06 18:56 | 48.26501 | 16.64591 | 7403 ft | 274 kts | 340° |
| 2026-05-06 18:56 | 48.28308 | 16.63868 | 7381 ft | 264 kts | 339° |
| 2026-05-06 18:56 | 48.30060 | 16.63150 | 7370 ft | 258 kts | 339° |
| 2026-05-06 18:56 | 48.31767 | 16.62438 | 7361 ft | 253 kts | 339° |
| 2026-05-06 18:57 | 48.33467 | 16.61722 | 7332 ft | 257 kts | 339° |
| 2026-05-06 18:57 | 48.35195 | 16.60992 | 7208 ft | 255 kts | 339° |
| 2026-05-06 18:57 | 48.36884 | 16.60282 | 6960 ft | 250 kts | 339° |
| 2026-05-06 18:57 | 48.38551 | 16.59578 | 6603 ft | 250 kts | 339° |
| 2026-05-06 18:58 | 48.40239 | 16.58863 | 6203 ft | 252 kts | 339° |
| 2026-05-06 18:58 | 48.41915 | 16.58155 | 5957 ft | 248 kts | 339° |
| 2026-05-06 18:58 | 48.43546 | 16.57466 | 5888 ft | 239 kts | 340° |
| 2026-05-06 18:58 | 48.45144 | 16.56790 | 5636 ft | 239 kts | 339° |
| 2026-05-06 18:59 | 48.46741 | 16.56111 | 5379 ft | 238 kts | 339° |
| 2026-05-06 18:59 | 48.48298 | 16.55295 | 5094 ft | 235 kts | 322° |
| 2026-05-06 18:59 | 48.49459 | 16.53707 | 5021 ft | 219 kts | 306° |
| 2026-05-06 18:59 | 48.50455 | 16.52027 | 4964 ft | 210 kts | 306° |
| 2026-05-06 19:00 | 48.51389 | 16.50414 | 4952 ft | 198 kts | 304° |
| 2026-05-06 19:00 | 48.51972 | 16.48649 | 4966 ft | 186 kts | 270° |
| 2026-05-06 19:00 | 48.51696 | 16.46829 | 4967 ft | 179 kts | 233° |
| 2026-05-06 19:00 | 48.51084 | 16.45999 | 4972 ft | 176 kts | 207° |
| 2026-05-06 19:01 | 48.49538 | 16.45320 | 4986 ft | 176 kts | 195° |
| 2026-05-06 19:01 | 48.48313 | 16.44914 | 4981 ft | 181 kts | 195° |
| 2026-05-06 19:01 | 48.47073 | 16.44503 | 4979 ft | 182 kts | 195° |
| 2026-05-06 19:01 | 48.45851 | 16.44103 | 4963 ft | 181 kts | 195° |
| 2026-05-06 19:02 | 48.44575 | 16.43945 | 4973 ft | 197 kts | 173° |
| 2026-05-06 19:02 | 48.43230 | 16.44610 | 4981 ft | 206 kts | 168° |
| 2026-05-06 19:02 | 48.41823 | 16.45207 | 4976 ft | 208 kts | 170° |
| 2026-05-06 19:02 | 48.40432 | 16.45775 | 4979 ft | 206 kts | 170° |
| 2026-05-06 19:03 | 48.39045 | 16.46350 | 4984 ft | 208 kts | 169° |
| 2026-05-06 19:03 | 48.37651 | 16.46936 | 4981 ft | 208 kts | 169° |
| 2026-05-06 19:03 | 48.36253 | 16.47528 | 4983 ft | 209 kts | 169° |
| 2026-05-06 19:03 | 48.34834 | 16.48129 | 4975 ft | 208 kts | 169° |
| 2026-05-06 19:04 | 48.33450 | 16.48716 | 4867 ft | 208 kts | 169° |
| 2026-05-06 19:04 | 48.32045 | 16.49311 | 4613 ft | 209 kts | 169° |
| 2026-05-06 19:04 | 48.30667 | 16.49896 | 4341 ft | 202 kts | 169° |
| 2026-05-06 19:04 | 48.29338 | 16.50461 | 4081 ft | 195 kts | 169° |
| 2026-05-06 19:05 | 48.28061 | 16.51002 | 3809 ft | 188 kts | 171° |
| 2026-05-06 19:05 | 48.26831 | 16.51523 | 3573 ft | 180 kts | 171° |
| 2026-05-06 19:05 | 48.25645 | 16.52027 | 3339 ft | 173 kts | 172° |
| 2026-05-06 19:05 | 48.24511 | 16.52507 | 3116 ft | 166 kts | 172° |
| 2026-05-06 19:06 | 48.23414 | 16.52972 | 2903 ft | 161 kts | 172° |
| 2026-05-06 19:06 | 48.22710 | 16.53269 | 2763 ft | 157 kts | 171° |
| 2026-05-06 19:06 | 48.21327 | 16.53854 | 2498 ft | 154 kts | 171° |
| 2026-05-06 19:06 | 48.20645 | 16.54142 | 2365 ft | 154 kts | 171° |
| 2026-05-06 19:07 | 48.19617 | 16.54578 | 2161 ft | 153 kts | 170° |
| 2026-05-06 19:07 | 48.18572 | 16.55019 | 1956 ft | 153 kts | 168° |
| 2026-05-06 19:07 | 48.17585 | 16.55440 | 1757 ft | 141 kts | 168° |
| 2026-05-06 19:07 | 48.16703 | 16.55816 | 1616 ft | 125 kts | 169° |
| 2026-05-06 19:08 | 48.15894 | 16.56156 | 1431 ft | 122 kts | 168° |
| 2026-05-06 19:08 | 48.15052 | 16.56512 | 1274 ft | 129 kts | 165° |
| 2026-05-06 19:08 | 48.14172 | 16.56896 | 1081 ft | 131 kts | 167° |
| 2026-05-06 19:08 | 48.13299 | 16.57258 | 906 ft | 130 kts | 166° |
| 2026-05-06 19:09 | 48.12431 | 16.57622 | 737 ft | 129 kts | 165° |
| 2026-05-06 19:09 | 48.11570 | 16.57987 | 618 ft | 126 kts | 164° |
| 2026-05-06 19:09 | 48.10865 | 16.58287 | 621 ft | 83 kts | 164° |
| 2026-05-06 19:09 | 48.10530 | 16.58426 | 618 ft | 31 kts | 164° |
| 2026-05-06 19:10 | 48.10336 | 16.58464 | 611 ft | 26 kts | 184° |
| 2026-05-06 19:10 | 48.10174 | 16.58416 | 612 ft | 18 kts | 195° |
| 2026-05-06 19:10 | 48.10095 | 16.58288 | 614 ft | 17 kts | 252° |
| 2026-05-06 19:10 | 48.10152 | 16.58171 | 612 ft | 16 kts | 344° |
| 2026-05-06 19:11 | 48.10257 | 16.58127 | 616 ft | 15 kts | 344° |
| 2026-05-06 19:11 | 48.10346 | 16.58090 | 615 ft | 7 kts | 344° |
| 2026-05-06 19:11 | 48.10357 | 16.58085 | 617 ft | 0 kts | 344° |
| 2026-05-06 19:12 | 48.10358 | 16.58085 | 616 ft | 0 kts | 344° |
| 2026-05-06 19:12 | 48.10360 | 16.58084 | 615 ft | 0 kts | 344° |
| 2026-05-06 19:12 | 48.10361 | 16.58083 | 614 ft | 0 kts | 344° |
| 2026-05-06 19:12 | 48.10362 | 16.58083 | 614 ft | 0 kts | 344° |
| 2026-05-06 19:13 | 48.10363 | 16.58083 | 613 ft | 0 kts | 344° |
| 2026-05-06 19:13 | 48.10365 | 16.58082 | 620 ft | 0 kts | 344° |
| 2026-05-06 19:13 | 48.10369 | 16.58080 | 618 ft | 1 kts | 344° |
| 2026-05-06 19:13 | 48.10391 | 16.58071 | 609 ft | 7 kts | 344° |
| 2026-05-06 19:14 | 48.10462 | 16.58041 | 615 ft | 14 kts | 344° |
| 2026-05-06 19:14 | 48.10568 | 16.57995 | 623 ft | 17 kts | 344° |
| 2026-05-06 19:14 | 48.10677 | 16.57948 | 609 ft | 16 kts | 344° |
| 2026-05-06 19:14 | 48.10781 | 16.57903 | 621 ft | 15 kts | 344° |
| 2026-05-06 19:15 | 48.10881 | 16.57860 | 614 ft | 15 kts | 344° |
| 2026-05-06 19:15 | 48.10977 | 16.57819 | 611 ft | 14 kts | 344° |
| 2026-05-06 19:15 | 48.11070 | 16.57782 | 612 ft | 13 kts | 345° |
| 2026-05-06 19:15 | 48.11158 | 16.57746 | 609 ft | 13 kts | 344° |
| 2026-05-06 19:16 | 48.11244 | 16.57710 | 616 ft | 13 kts | 344° |
| 2026-05-06 19:16 | 48.11331 | 16.57674 | 609 ft | 14 kts | 344° |
| 2026-05-06 19:16 | 48.11434 | 16.57630 | 619 ft | 16 kts | 344° |
| 2026-05-06 19:16 | 48.11541 | 16.57585 | 609 ft | 16 kts | 344° |
| 2026-05-06 19:17 | 48.11643 | 16.57541 | 615 ft | 15 kts | 344° |
| 2026-05-06 19:17 | 48.11741 | 16.57500 | 615 ft | 14 kts | 344° |
| 2026-05-06 19:17 | 48.11810 | 16.57418 | 620 ft | 14 kts | 272° |
| 2026-05-06 19:17 | 48.11826 | 16.57299 | 615 ft | 11 kts | 297° |
| 2026-05-06 19:18 | 48.11863 | 16.57206 | 611 ft | 10 kts | 315° |
| 2026-05-06 19:18 | 48.11907 | 16.57125 | 617 ft | 10 kts | 296° |
| 2026-05-06 19:18 | 48.11932 | 16.57045 | 609 ft | 8 kts | 296° |
| 2026-05-06 19:18 | 48.11921 | 16.56987 | 612 ft | 4 kts | 213° |
| 2026-05-06 19:19 | 48.11896 | 16.56968 | 617 ft | 4 kts | 204° |
| 2026-05-06 19:19 | 48.11870 | 16.56950 | 609 ft | 4 kts | 206° |
| 2026-05-06 19:19 | 48.11851 | 16.56936 | 609 ft | 2 kts | 206° |
| 2026-05-06 19:19 | 48.11848 | 16.56934 | 613 ft | 0 kts | 206° |